Time;durP1;ratioP1;P1;durP2;ratioP2;P2;SDS_P1;SDS_P2;PMS_P1;PMS_P2;Temp;Humidity;BMP_temperature;BMP_pressure;BME280_temperature;BME280_humidity;BME280_pressure;Samples;Min_cycle;Max_cycle;Signal;HPM_P1;HPM_P2
2022/03/28 00:02:08;;;;;;;37.42;13.00;;;5.00;99.90;;;;;;5006990;28;20107;-64
2022/03/28 00:04:34;;;;;;;33.15;13.18;;;5.00;99.90;;;;;;5008714;28;20404;-63
2022/03/28 00:07:00;;;;;;;36.03;14.48;;;5.00;99.90;;;;;;5006837;28;20492;-64
2022/03/28 00:09:25;;;;;;;35.40;13.63;;;5.10;99.90;;;;;;5009209;28;20393;-64
2022/03/28 00:11:51;;;;;;;45.58;15.27;;;5.10;99.90;;;;;;5013113;28;20565;-63
2022/03/28 00:14:17;;;;;;;39.33;14.18;;;5.00;99.90;;;;;;5017124;28;20112;-63
2022/03/28 00:16:42;;;;;;;32.53;13.80;;;4.90;99.90;;;;;;5015346;28;20487;-64
2022/03/28 00:19:08;;;;;;;33.67;13.18;;;4.80;99.90;;;;;;5014071;28;20033;-65
2022/03/28 00:21:33;;;;;;;35.50;13.85;;;4.70;99.90;;;;;;5015251;28;20097;-64
2022/03/28 00:23:59;;;;;;;32.33;13.65;;;4.70;99.90;;;;;;5017606;28;20104;-64
2022/03/28 00:26:25;;;;;;;33.47;13.25;;;4.70;99.90;;;;;;5015390;28;20041;-64
2022/03/28 00:28:50;;;;;;;33.78;13.43;;;4.60;99.90;;;;;;5014733;28;20088;-64
2022/03/28 00:31:16;;;;;;;31.20;13.88;;;4.60;99.90;;;;;;5014044;28;20628;-64
2022/03/28 00:33:42;;;;;;;32.42;13.00;;;4.50;99.90;;;;;;5015586;28;20030;-64
2022/03/28 00:36:08;;;;;;;41.40;14.32;;;4.50;99.90;;;;;;5014219;28;20029;-64
2022/03/28 00:38:33;;;;;;;33.97;13.63;;;4.40;99.90;;;;;;5013961;28;20033;-64
2022/03/28 00:40:59;;;;;;;37.40;14.35;;;4.30;99.90;;;;;;5014614;28;20511;-64
2022/03/28 00:43:26;;;;;;;35.63;12.85;;;4.30;99.90;;;;;;5014292;28;20036;-64
2022/03/28 00:45:52;;;;;;;32.55;13.60;;;4.20;99.90;;;;;;5017573;28;20026;-64
2022/03/28 00:48:18;;;;;;;32.05;13.18;;;4.30;99.90;;;;;;5013454;28;20032;-64
2022/03/28 00:50:44;;;;;;;30.98;13.05;;;4.30;99.90;;;;;;5020533;28;20034;-64
2022/03/28 00:53:12;;;;;;;29.52;13.07;;;4.10;99.90;;;;;;5013716;28;20026;-64
2022/03/28 00:55:38;;;;;;;32.65;13.63;;;4.10;99.90;;;;;;5013730;28;20491;-64
2022/03/28 00:58:04;;;;;;;32.65;13.65;;;4.10;99.90;;;;;;5016664;28;20396;-65
2022/03/28 01:00:30;;;;;;;32.28;13.57;;;4.10;99.90;;;;;;5016410;28;20025;-63
2022/03/28 01:02:57;;;;;;;35.65;13.88;;;4.00;99.90;;;;;;5015133;28;20623;-65
2022/03/28 01:05:26;;;;;;;36.70;14.25;;;4.00;99.90;;;;;;5014141;28;20550;-65
2022/03/28 01:07:52;;;;;;;30.65;12.55;;;4.00;99.90;;;;;;5014452;28;20052;-64
2022/03/28 01:10:18;;;;;;;35.05;13.60;;;4.10;99.90;;;;;;5016154;28;20033;-64
2022/03/28 01:12:44;;;;;;;33.28;13.30;;;4.00;99.90;;;;;;5014224;28;20084;-63
2022/03/28 01:15:14;;;;;;;32.40;13.18;;;4.00;99.90;;;;;;5014760;28;20117;-64
2022/03/28 01:20:29;;;;;;;35.20;13.68;;;3.90;99.90;;;;;;5017355;28;20167;-64
2022/03/28 01:22:55;;;;;;;33.75;13.02;;;3.80;99.90;;;;;;5018902;28;20148;-64
2022/03/28 01:25:25;;;;;;;32.58;12.98;;;3.70;99.90;;;;;;5016463;28;20144;-63
2022/03/28 01:27:52;;;;;;;33.83;13.35;;;3.60;99.90;;;;;;5012180;28;20046;-64
2022/03/28 01:30:20;;;;;;;33.63;13.15;;;3.60;99.90;;;;;;5010460;28;20032;-64
2022/03/28 01:32:46;;;;;;;29.55;11.75;;;3.60;99.90;;;;;;5018006;28;20048;-64
2022/03/28 01:35:12;;;;;;;35.70;13.35;;;3.50;99.90;;;;;;5009842;28;20109;-64
2022/03/28 01:37:38;;;;;;;34.67;11.93;;;3.50;99.90;;;;;;5011081;28;20164;-64
2022/03/28 01:40:04;;;;;;;29.85;12.07;;;3.40;99.90;;;;;;5010654;28;20468;-64
2022/03/28 01:42:30;;;;;;;28.30;11.32;;;3.40;99.90;;;;;;5014416;28;20030;-64
2022/03/28 01:44:57;;;;;;;31.65;12.90;;;3.40;99.90;;;;;;5010396;28;20040;-65
2022/03/28 01:47:26;;;;;;;31.77;11.82;;;3.30;99.90;;;;;;5010562;28;20099;-64
2022/03/28 01:49:52;;;;;;;31.83;13.20;;;3.30;99.90;;;;;;5011154;28;20025;-64
2022/03/28 01:52:18;;;;;;;32.35;12.75;;;3.20;99.90;;;;;;5016238;28;20033;-63
2022/03/28 01:54:44;;;;;;;30.83;11.15;;;3.20;99.90;;;;;;5010770;28;20026;-64
2022/03/28 01:57:10;;;;;;;25.67;11.38;;;3.20;99.90;;;;;;5010137;28;20064;-65
2022/03/28 01:59:36;;;;;;;27.60;11.63;;;3.20;99.90;;;;;;5017092;28;20108;-64
2022/03/28 02:02:02;;;;;;;27.35;10.98;;;3.30;99.90;;;;;;5007381;28;20109;-64
2022/03/28 02:04:27;;;;;;;29.52;12.10;;;3.20;99.90;;;;;;5014509;28;20053;-63
2022/03/28 02:06:53;;;;;;;30.23;12.02;;;3.20;99.90;;;;;;5010359;28;20042;-65
2022/03/28 02:09:19;;;;;;;28.45;11.57;;;3.10;99.90;;;;;;5010156;28;20200;-64
2022/03/28 02:11:45;;;;;;;30.98;12.73;;;3.00;99.90;;;;;;5013624;28;20033;-64
2022/03/28 02:14:11;;;;;;;31.50;12.63;;;3.10;99.90;;;;;;5010906;28;20041;-64
2022/03/28 02:16:36;;;;;;;36.00;13.35;;;3.00;99.90;;;;;;5013549;28;20042;-64
2022/03/28 02:19:02;;;;;;;32.63;11.98;;;2.90;99.90;;;;;;5010677;28;20030;-65
2022/03/28 02:21:28;;;;;;;32.90;11.68;;;2.90;99.90;;;;;;4997734;28;20038;-65
2022/03/28 02:23:53;;;;;;;29.75;11.85;;;2.90;99.90;;;;;;5003956;28;20733;-64
2022/03/28 02:26:19;;;;;;;28.60;11.40;;;2.90;99.90;;;;;;5003877;28;20041;-65
2022/03/28 02:28:44;;;;;;;29.10;11.25;;;2.80;99.90;;;;;;5008753;28;20050;-64
2022/03/28 02:31:10;;;;;;;31.58;11.65;;;2.70;99.90;;;;;;5007328;28;20400;-64
2022/03/28 02:33:36;;;;;;;34.58;12.48;;;2.60;99.90;;;;;;5009973;28;20034;-64
2022/03/28 02:36:03;;;;;;;29.52;11.48;;;2.60;99.90;;;;;;5005540;28;20026;-65
2022/03/28 02:38:29;;;;;;;28.52;11.40;;;2.50;99.90;;;;;;5001609;28;20069;-64
2022/03/28 02:40:55;;;;;;;27.55;11.60;;;2.50;99.90;;;;;;5009154;28;20109;-65
2022/03/28 02:43:22;;;;;;;28.58;11.23;;;2.50;99.90;;;;;;5002917;28;20046;-65
2022/03/28 02:45:48;;;;;;;28.52;11.55;;;2.50;99.90;;;;;;5012687;28;20026;-66
2022/03/28 02:48:14;;;;;;;30.15;11.85;;;2.50;99.90;;;;;;5011507;28;20045;-64
2022/03/28 02:50:40;;;;;;;31.90;11.40;;;2.50;99.90;;;;;;5009751;28;20025;-64
2022/03/28 02:53:06;;;;;;;28.30;11.15;;;2.50;99.90;;;;;;5010886;28;20045;-64
2022/03/28 02:55:31;;;;;;;32.08;11.10;;;2.40;99.90;;;;;;5012559;28;20049;-64
2022/03/28 02:57:57;;;;;;;30.38;11.90;;;2.40;99.90;;;;;;5011947;28;20389;-64
2022/03/28 03:00:23;;;;;;;34.80;12.43;;;2.40;99.90;;;;;;5006486;28;20053;-64
2022/03/28 03:02:48;;;;;;;32.75;12.30;;;2.40;99.90;;;;;;5009399;28;20037;-63
2022/03/28 03:05:14;;;;;;;30.88;11.52;;;2.50;99.90;;;;;;5008667;28;20060;-64
2022/03/28 03:07:40;;;;;;;37.05;12.57;;;2.60;99.90;;;;;;5010617;28;20572;-64
2022/03/28 03:10:07;;;;;;;29.13;11.90;;;2.70;99.90;;;;;;5008872;28;20042;-64
2022/03/28 03:12:33;;;;;;;32.40;12.05;;;2.70;99.90;;;;;;5014481;28;20026;-64
2022/03/28 03:14:59;;;;;;;28.90;12.50;;;2.80;99.90;;;;;;5009416;28;20033;-64
2022/03/28 03:17:25;;;;;;;28.08;11.27;;;2.70;99.90;;;;;;5009235;28;20022;-64
2022/03/28 03:19:51;;;;;;;33.25;11.68;;;2.60;99.90;;;;;;5009537;28;20075;-64
2022/03/28 03:22:17;;;;;;;36.08;12.73;;;2.50;99.90;;;;;;5008719;28;20036;-65
2022/03/28 03:24:44;;;;;;;36.13;12.43;;;2.50;99.90;;;;;;5013500;28;20026;-64
2022/03/28 03:27:10;;;;;;;33.95;12.52;;;2.40;99.90;;;;;;5010222;28;20385;-64
2022/03/28 03:29:36;;;;;;;30.23;11.32;;;2.30;99.90;;;;;;5009402;28;20025;-63
2022/03/28 03:32:03;;;;;;;32.90;11.82;;;2.20;99.90;;;;;;5009164;28;20033;-64
2022/03/28 03:34:29;;;;;;;32.28;13.77;;;2.10;99.90;;;;;;5008577;28;20785;-64
2022/03/28 03:36:55;;;;;;;32.20;12.05;;;2.10;99.90;;;;;;5032476;28;20041;-64
2022/03/28 03:39:22;;;;;;;29.48;11.85;;;2.00;99.90;;;;;;5006977;28;20794;-64
2022/03/28 03:41:48;;;;;;;28.38;11.77;;;2.00;99.90;;;;;;5009236;28;20052;-64
2022/03/28 03:44:14;;;;;;;31.35;11.93;;;2.00;99.90;;;;;;5009425;28;20072;-64
2022/03/28 03:46:40;;;;;;;28.40;11.35;;;1.90;99.90;;;;;;5008776;28;20022;-64
2022/03/28 03:49:05;;;;;;;35.28;12.65;;;1.80;99.90;;;;;;5012764;28;20721;-64
2022/03/28 03:51:31;;;;;;;28.77;11.57;;;1.70;99.90;;;;;;5008029;28;20045;-64
2022/03/28 03:53:57;;;;;;;33.25;11.32;;;1.70;99.90;;;;;;5010571;28;20085;-65
2022/03/28 03:56:23;;;;;;;33.28;13.00;;;1.80;99.90;;;;;;5013504;28;20040;-65
2022/03/28 03:58:49;;;;;;;34.95;12.23;;;1.80;99.90;;;;;;5008884;28;20036;-64
2022/03/28 04:01:14;;;;;;;33.67;12.40;;;1.80;99.90;;;;;;5007708;28;20026;-64
2022/03/28 04:03:40;;;;;;;38.05;13.82;;;1.80;99.90;;;;;;5011646;28;20046;-64
2022/03/28 04:06:06;;;;;;;33.65;12.55;;;1.80;99.90;;;;;;5008784;28;20030;-64
2022/03/28 04:08:31;;;;;;;36.40;13.27;;;1.90;99.90;;;;;;5004029;28;20045;-64
2022/03/28 04:10:57;;;;;;;33.50;12.05;;;2.00;99.90;;;;;;5007946;28;20030;-64
2022/03/28 04:13:23;;;;;;;29.25;11.82;;;2.00;99.90;;;;;;5008246;28;20061;-64
2022/03/28 04:15:49;;;;;;;32.10;12.48;;;1.90;99.90;;;;;;5008849;28;20385;-64
2022/03/28 04:18:15;;;;;;;32.17;12.13;;;1.90;99.90;;;;;;5008147;28;20041;-64
2022/03/28 04:20:41;;;;;;;37.25;12.15;;;1.80;99.90;;;;;;5007343;28;20034;-64
2022/03/28 04:23:07;;;;;;;36.33;12.00;;;1.80;99.90;;;;;;5008125;28;20036;-64
2022/03/28 04:25:33;;;;;;;30.08;12.48;;;1.70;99.90;;;;;;5007479;28;20396;-64
2022/03/28 04:27:59;;;;;;;29.33;11.90;;;1.70;99.90;;;;;;5008734;28;20063;-64
2022/03/28 04:30:25;;;;;;;40.88;12.38;;;1.70;99.90;;;;;;5007694;28;20037;-64
2022/03/28 04:32:51;;;;;;;28.17;11.10;;;1.60;99.90;;;;;;5007931;28;20279;-64
2022/03/28 04:35:17;;;;;;;30.23;11.70;;;1.60;99.90;;;;;;5007854;28;20798;-65
2022/03/28 04:37:43;;;;;;;34.35;12.20;;;1.50;99.90;;;;;;5008238;28;20366;-64
2022/03/28 04:40:13;;;;;;;28.50;11.65;;;1.50;99.90;;;;;;5006921;28;20037;-64
2022/03/28 04:42:39;;;;;;;31.02;11.85;;;1.50;99.90;;;;;;5006598;28;20041;-64
2022/03/28 04:45:06;;;;;;;31.23;11.65;;;1.40;99.90;;;;;;5008477;28;20388;-64
2022/03/28 04:47:33;;;;;;;30.75;12.25;;;1.40;99.90;;;;;;5006182;28;20107;-64
2022/03/28 04:49:58;;;;;;;31.63;11.85;;;1.40;99.90;;;;;;5008554;28;20053;-64
2022/03/28 04:52:25;;;;;;;30.23;11.38;;;1.40;99.90;;;;;;5008132;28;20038;-64
2022/03/28 04:54:50;;;;;;;32.13;11.77;;;1.40;99.90;;;;;;5010228;28;20112;-64
2022/03/28 04:57:16;;;;;;;31.23;12.73;;;1.40;99.90;;;;;;5009615;28;20172;-65
2022/03/28 04:59:42;;;;;;;32.05;11.88;;;1.50;99.90;;;;;;5010828;28;20113;-64
2022/03/28 05:02:07;;;;;;;26.77;11.57;;;1.50;99.90;;;;;;5011844;28;20037;-64
2022/03/28 05:04:33;;;;;;;32.83;12.38;;;1.40;99.90;;;;;;5010862;28;20054;-64
2022/03/28 05:06:59;;;;;;;32.97;12.18;;;1.30;99.90;;;;;;5012002;28;20076;-64
2022/03/28 05:09:25;;;;;;;34.75;12.15;;;1.40;99.90;;;;;;5011201;28;20037;-65
2022/03/28 05:11:51;;;;;;;35.63;13.02;;;1.50;99.90;;;;;;5011819;28;21570;-64
2022/03/28 05:14:22;;;;;;;37.72;12.60;;;1.40;99.90;;;;;;5011200;28;20030;-63
2022/03/28 05:16:48;;;;;;;30.80;11.43;;;1.40;99.90;;;;;;5011226;28;20025;-64
2022/03/28 05:19:14;;;;;;;30.80;11.38;;;1.30;99.90;;;;;;5011073;28;20026;-64
2022/03/28 05:21:40;;;;;;;30.42;12.70;;;1.30;99.90;;;;;;5011531;28;20033;-64
2022/03/28 05:24:06;;;;;;;31.90;13.02;;;1.30;99.90;;;;;;5011532;28;20116;-64
2022/03/28 05:26:31;;;;;;;35.53;12.38;;;1.30;99.90;;;;;;5011063;28;20034;-65
2022/03/28 05:28:57;;;;;;;30.15;12.20;;;1.30;99.90;;;;;;5011434;28;20026;-64
2022/03/28 05:31:23;;;;;;;32.78;12.50;;;1.30;99.90;;;;;;5010488;28;20080;-64
2022/03/28 05:33:49;;;;;;;43.20;13.30;;;1.20;99.90;;;;;;5010613;28;20041;-64
2022/03/28 05:36:14;;;;;;;47.83;14.52;;;1.30;99.90;;;;;;5011121;28;20431;-65
2022/03/28 05:38:42;;;;;;;33.95;13.25;;;1.50;99.90;;;;;;5011082;28;20037;-64
2022/03/28 05:41:08;;;;;;;34.38;13.38;;;1.50;99.90;;;;;;5015115;28;20037;-64
2022/03/28 05:43:35;;;;;;;40.00;13.60;;;1.50;99.90;;;;;;5014305;28;20026;-65
2022/03/28 05:46:02;;;;;;;38.97;13.55;;;1.60;99.90;;;;;;5006196;28;20033;-64
2022/03/28 05:48:28;;;;;;;33.42;12.90;;;1.70;99.90;;;;;;5011118;28;20361;-64
2022/03/28 05:50:54;;;;;;;33.97;13.70;;;1.70;99.90;;;;;;5011458;28;20033;-64
2022/03/28 05:53:19;;;;;;;41.35;14.52;;;1.80;99.90;;;;;;5009820;28;20399;-65
2022/03/28 05:55:45;;;;;;;33.50;12.13;;;1.90;99.90;;;;;;5015064;28;20476;-64
2022/03/28 05:58:12;;;;;;;38.88;13.30;;;1.90;99.90;;;;;;5009538;28;20143;-64
2022/03/28 06:00:38;;;;;;;31.55;12.52;;;2.00;99.90;;;;;;5009671;28;20034;-65
2022/03/28 06:03:08;;;;;;;32.30;13.50;;;2.10;99.90;;;;;;5010184;28;20050;-64
2022/03/28 06:05:36;;;;;;;39.77;13.63;;;2.00;99.90;;;;;;5008327;28;20212;-64
2022/03/28 06:08:03;;;;;;;32.53;12.77;;;2.10;99.90;;;;;;5010738;28;20324;-64
2022/03/28 06:10:29;;;;;;;35.83;13.02;;;2.20;99.90;;;;;;5008820;28;20080;-65
2022/03/28 06:12:55;;;;;;;32.65;12.35;;;2.40;99.90;;;;;;5010653;28;20485;-64
2022/03/28 06:15:21;;;;;;;34.78;11.88;;;2.50;99.90;;;;;;5009550;28;20033;-64
2022/03/28 06:17:46;;;;;;;38.50;13.32;;;2.60;99.90;;;;;;5010050;28;20064;-64
2022/03/28 06:20:13;;;;;;;34.05;12.13;;;2.50;99.90;;;;;;5013515;28;20096;-64
2022/03/28 06:22:39;;;;;;;31.10;10.98;;;2.60;99.90;;;;;;5013303;28;20026;-64
2022/03/28 06:25:06;;;;;;;31.23;11.65;;;2.70;99.90;;;;;;5014660;28;20477;-66
2022/03/28 06:27:31;;;;;;;29.95;11.30;;;2.60;99.90;;;;;;5006983;28;20488;-65
2022/03/28 06:29:57;;;;;;;30.17;11.15;;;2.70;99.90;;;;;;5010040;28;20036;-65
2022/03/28 06:32:23;;;;;;;28.90;12.63;;;2.70;99.90;;;;;;5008056;28;20487;-65
2022/03/28 06:34:52;;;;;;;31.85;12.13;;;2.70;99.90;;;;;;5010441;28;20038;-65
2022/03/28 06:37:21;;;;;;;32.53;11.52;;;2.70;99.90;;;;;;5009933;28;20025;-66
2022/03/28 06:39:47;;;;;;;33.88;12.48;;;2.80;99.90;;;;;;5010529;28;20440;-65
2022/03/28 06:42:13;;;;;;;30.02;12.30;;;2.80;99.90;;;;;;5009910;28;20096;-64
2022/03/28 06:44:39;;;;;;;34.03;12.15;;;2.90;99.90;;;;;;5009423;28;20035;-65
2022/03/28 06:47:05;;;;;;;29.98;12.38;;;3.00;99.90;;;;;;5009600;28;20461;-65
2022/03/28 06:49:32;;;;;;;34.67;12.90;;;3.00;99.90;;;;;;5009451;28;20045;-64
2022/03/28 06:51:58;;;;;;;31.52;12.90;;;3.20;99.90;;;;;;5010031;28;20048;-65
2022/03/28 06:54:24;;;;;;;37.78;13.63;;;3.40;99.90;;;;;;5009364;28;20034;-65
2022/03/28 06:56:50;;;;;;;35.88;13.85;;;3.60;99.90;;;;;;5010313;28;20026;-65
2022/03/28 06:59:15;;;;;;;39.53;14.60;;;3.90;99.90;;;;;;5009754;28;20026;-64
2022/03/28 07:01:41;;;;;;;34.40;13.57;;;4.00;99.90;;;;;;5008691;28;20040;-65
2022/03/28 07:04:10;;;;;;;37.70;14.48;;;4.20;99.90;;;;;;5009272;28;20048;-65
2022/03/28 07:06:38;;;;;;;32.75;13.63;;;4.40;99.90;;;;;;5001826;28;20033;-66
2022/03/28 07:09:04;;;;;;;40.22;14.35;;;4.60;99.90;;;;;;5009932;28;20022;-65
2022/03/28 07:11:31;;;;;;;35.40;12.98;;;4.80;99.90;;;;;;5008085;28;20396;-65
2022/03/28 07:13:56;;;;;;;35.75;14.48;;;4.90;99.90;;;;;;5009045;28;20045;-65
2022/03/28 07:16:22;;;;;;;35.38;13.95;;;5.00;99.90;;;;;;5008733;28;20465;-65
2022/03/28 07:18:48;;;;;;;33.03;14.48;;;5.20;99.90;;;;;;5016449;28;20044;-64
2022/03/28 07:21:13;;;;;;;35.35;14.43;;;5.50;99.90;;;;;;5009249;28;20040;-65
2022/03/28 07:23:39;;;;;;;34.05;14.20;;;5.70;99.90;;;;;;5007881;28;20084;-65
2022/03/28 07:26:05;;;;;;;32.00;13.68;;;5.90;99.90;;;;;;5009258;28;20087;-65
2022/03/28 07:28:31;;;;;;;31.23;13.35;;;6.10;99.90;;;;;;5008507;28;20132;-65
2022/03/28 07:30:56;;;;;;;38.83;15.23;;;6.30;99.90;;;;;;5009086;28;20385;-65
2022/03/28 07:33:22;;;;;;;40.03;14.13;;;6.60;99.90;;;;;;5007314;28;20041;-65
2022/03/28 07:35:48;;;;;;;39.42;14.85;;;6.80;99.90;;;;;;5009533;28;20045;-65
2022/03/28 07:38:15;;;;;;;36.28;14.90;;;7.00;99.90;;;;;;5009339;28;20046;-65
2022/03/28 07:40:43;;;;;;;40.83;15.55;;;7.10;99.90;;;;;;5008473;28;20099;-65
2022/03/28 07:43:08;;;;;;;36.83;14.90;;;7.30;99.90;;;;;;5009101;28;20025;-65
2022/03/28 07:45:35;;;;;;;37.88;15.80;;;7.50;99.90;;;;;;5008440;28;20436;-64
2022/03/28 07:48:02;;;;;;;37.30;15.65;;;7.80;99.90;;;;;;5009118;28;20041;-63
2022/03/28 07:50:27;;;;;;;37.38;14.35;;;7.90;99.90;;;;;;5008280;28;20048;-65
2022/03/28 07:52:53;;;;;;;44.65;16.52;;;8.20;99.90;;;;;;5009355;28;20018;-65
2022/03/28 07:55:19;;;;;;;35.15;14.30;;;8.50;99.90;;;;;;5008925;28;20033;-65
2022/03/28 07:57:45;;;;;;;34.47;14.40;;;8.70;99.90;;;;;;5008290;28;20042;-65
2022/03/28 08:00:14;;;;;;;37.90;15.00;;;8.90;99.90;;;;;;5009104;28;20065;-65
2022/03/28 08:02:40;;;;;;;36.65;14.52;;;9.20;99.90;;;;;;5006385;28;20025;-64
2022/03/28 08:05:07;;;;;;;38.53;15.60;;;9.50;99.90;;;;;;5009187;28;20077;-65
2022/03/28 08:07:34;;;;;;;33.45;13.48;;;9.70;99.90;;;;;;5007980;28;20030;-64
2022/03/28 08:10:00;;;;;;;35.10;15.10;;;9.80;99.90;;;;;;5008946;28;20030;-64
2022/03/28 08:12:26;;;;;;;34.83;14.43;;;10.00;99.90;;;;;;5008144;28;20029;-65
2022/03/28 08:14:52;;;;;;;30.95;13.77;;;10.40;99.90;;;;;;5008657;28;20036;-64
2022/03/28 08:17:19;;;;;;;35.10;14.50;;;10.60;99.90;;;;;;5008341;28;20384;-64
2022/03/28 08:19:45;;;;;;;33.47;13.38;;;10.80;99.90;;;;;;5007811;28;20105;-64
2022/03/28 08:22:11;;;;;;;36.53;13.52;;;11.10;99.90;;;;;;5008551;28;20034;-65
2022/03/28 08:24:37;;;;;;;32.83;13.55;;;11.30;99.90;;;;;;5006318;28;20037;-64
2022/03/28 08:27:03;;;;;;;30.90;13.65;;;11.60;99.90;;;;;;5008778;28;20042;-65
2022/03/28 08:29:28;;;;;;;33.00;13.05;;;11.80;99.90;;;;;;5007776;28;20026;-65
2022/03/28 08:31:54;;;;;;;34.92;13.27;;;12.10;99.90;;;;;;5008220;28;20049;-64
2022/03/28 08:34:20;;;;;;;35.25;13.93;;;12.30;99.90;;;;;;5009572;28;20069;-64
2022/03/28 08:36:46;;;;;;;35.60;13.32;;;12.60;99.90;;;;;;5011298;28;20413;-63
2022/03/28 08:39:12;;;;;;;34.30;14.05;;;12.80;99.90;;;;;;5012275;28;20476;-63
2022/03/28 08:41:38;;;;;;;36.90;14.00;;;13.00;99.90;;;;;;5011331;28;20041;-64
2022/03/28 08:44:04;;;;;;;37.15;14.27;;;13.40;99.90;;;;;;5012602;28;20100;-63
2022/03/28 08:46:30;;;;;;;36.20;14.00;;;13.60;99.90;;;;;;5011967;28;20064;-64
2022/03/28 08:48:58;;;;;;;33.65;14.48;;;13.80;99.90;;;;;;5012300;28;20846;-64
2022/03/28 08:51:24;;;;;;;40.13;13.60;;;14.00;99.90;;;;;;5012074;28;20797;-64
2022/03/28 08:53:50;;;;;;;32.90;14.52;;;14.20;99.90;;;;;;5011537;28;20034;-64
2022/03/28 08:56:16;;;;;;;35.80;15.15;;;14.20;99.90;;;;;;5011844;28;20040;-63
2022/03/28 08:58:42;;;;;;;35.90;14.63;;;14.40;99.90;;;;;;5009791;28;20057;-63
2022/03/28 09:01:09;;;;;;;35.60;14.73;;;14.60;99.90;;;;;;5011826;28;20396;-63
2022/03/28 09:03:44;;;;;;;45.45;14.48;;;14.60;99.90;;;;;;5010964;28;20058;-64
2022/03/28 09:06:32;;;;;;;31.17;13.75;;;14.70;99.90;;;;;;5011352;28;20030;-63
2022/03/28 09:09:27;;;;;;;37.38;14.75;;;14.70;99.90;;;;;;5011787;28;20124;-64
2022/03/28 09:12:08;;;;;;;34.40;14.95;;;14.90;99.90;;;;;;5011818;28;20100;-63
2022/03/28 09:14:35;;;;;;;;;;;15.10;99.80;;;;;;5005945;28;20038;-64
2022/03/28 09:17:08;;;;;;;44.45;14.90;;;15.30;99.90;;;;;;5010722;28;19909;-64
2022/03/28 09:19:49;;;;;;;34.88;13.57;;;15.40;98.60;;;;;;5010887;28;20069;-64
2022/03/28 09:22:19;;;;;;;37.00;13.98;;;15.60;97.30;;;;;;5011478;28;20468;-63
2022/03/28 09:24:45;;;;;;;39.45;15.02;;;15.70;95.10;;;;;;5010508;28;20033;-63
2022/03/28 09:27:15;;;;;;;39.30;13.90;;;15.80;97.30;;;;;;5011473;28;20560;-64
2022/03/28 09:29:55;;;;;;;34.42;14.60;;;16.10;93.40;;;;;;5010932;28;20041;-64
2022/03/28 09:32:22;;;;;;;40.53;14.10;;;16.10;87.20;;;;;;5011483;28;20030;-63
2022/03/28 09:35:04;;;;;;;38.00;14.30;;;16.20;89.60;;;;;;5010782;28;20061;-63
2022/03/28 09:37:30;;;;;;;38.42;14.07;;;16.50;85.50;;;;;;5010871;28;20042;-64
2022/03/28 09:39:57;;;;;;;35.63;14.77;;;16.50;82.60;;;;;;5011122;28;20085;-64
2022/03/28 09:42:23;;;;;;;32.25;13.25;;;16.40;82.50;;;;;;5011557;28;20034;-64
2022/03/28 09:44:51;;;;;;;35.55;13.55;;;16.60;74.00;;;;;;5009572;28;20033;-63
2022/03/28 09:47:21;;;;;;;45.95;14.98;;;16.70;71.30;;;;;;5010691;28;20060;-64
2022/03/28 09:49:49;;;;;;;35.00;14.45;;;16.70;62.60;;;;;;5010542;28;20030;-64
2022/03/28 09:52:17;;;;;;;33.70;14.00;;;16.90;70.00;;;;;;5011010;28;20491;-63
2022/03/28 09:54:54;;;;;;;34.03;13.77;;;17.00;69.20;;;;;;5010391;28;20033;-64
2022/03/28 09:57:35;;;;;;;35.97;15.57;;;17.30;62.90;;;;;;5010736;28;20034;-63
2022/03/28 10:00:07;;;;;;;37.90;14.00;;;17.50;60.90;;;;;;5011096;28;20041;-63
2022/03/28 10:02:38;;;;;;;45.00;15.73;;;17.50;60.30;;;;;;5002313;28;20022;-64
2022/03/28 10:05:04;;;;;;;36.47;14.13;;;17.40;55.00;;;;;;5011015;28;20062;-63
2022/03/28 10:07:31;;;;;;;33.65;13.55;;;17.40;56.50;;;;;;5010365;28;20441;-65
2022/03/28 10:09:58;;;;;;;34.90;13.80;;;17.50;57.30;;;;;;5010685;28;20065;-64
2022/03/28 10:12:25;;;;;;;33.35;13.65;;;17.40;55.00;;;;;;5011165;28;20044;-63
2022/03/28 10:15:00;;;;;;;36.75;14.02;;;17.50;56.80;;;;;;5009671;28;20177;-63
2022/03/28 10:17:27;;;;;;;37.67;15.00;;;17.60;55.60;;;;;;5010651;28;20044;-63
2022/03/28 10:19:53;;;;;;;36.50;15.05;;;17.80;53.90;;;;;;5008059;28;20057;-63
2022/03/28 10:22:27;;;;;;;39.95;14.77;;;18.00;54.30;;;;;;5010635;28;20057;-63
2022/03/28 10:24:57;;;;;;;36.88;13.93;;;17.80;53.10;;;;;;5009980;28;20519;-62
2022/03/28 10:27:23;;;;;;;38.72;15.43;;;18.00;54.80;;;;;;5010351;28;20118;-63
2022/03/28 10:29:49;;;;;;;35.17;14.60;;;18.00;50.50;;;;;;5009543;28;20841;-63
2022/03/28 10:32:16;;;;;;;38.35;14.10;;;18.00;52.80;;;;;;5010696;28;20038;-63
2022/03/28 10:35:01;;;;;;;37.72;14.90;;;17.90;51.50;;;;;;5003271;28;20030;-63
2022/03/28 10:37:30;;;;;;;33.63;15.10;;;18.20;56.40;;;;;;5010533;28;20428;-64
2022/03/28 10:40:18;;;;;;;39.33;15.07;;;18.30;54.00;;;;;;5009768;28;20025;-63
2022/03/28 10:43:14;;;;;;;34.30;14.93;;;18.60;52.00;;;;;;5009559;28;20034;-62
2022/03/28 10:45:47;;;;;;;36.13;13.82;;;18.60;49.00;;;;;;4996553;28;20120;-63
2022/03/28 10:48:13;;;;;;;31.95;14.55;;;18.40;50.10;;;;;;5009877;28;20049;-63
2022/03/28 10:50:50;;;;;;;36.72;14.02;;;18.40;49.80;;;;;;5009072;28;20033;-63
2022/03/28 10:53:39;;;;;;;34.05;13.13;;;18.60;50.00;;;;;;5010085;28;20476;-64
2022/03/28 10:56:11;;;;;;;34.72;13.90;;;18.50;49.40;;;;;;5009761;28;20159;-64
2022/03/28 10:58:38;;;;;;;32.38;13.88;;;18.90;50.90;;;;;;5008997;28;20130;-63
2022/03/28 11:01:12;;;;;;;39.42;14.15;;;19.00;48.10;;;;;;5009502;28;20034;-64
2022/03/28 11:03:48;;;;;;;32.40;13.98;;;18.90;47.80;;;;;;5008561;28;20477;-63
2022/03/28 11:06:16;;;;;;;31.23;13.65;;;18.90;48.80;;;;;;5010109;28;20057;-63
2022/03/28 11:08:45;;;;;;;29.27;12.40;;;18.80;48.40;;;;;;5008736;28;20046;-63
2022/03/28 11:11:24;;;;;;;29.38;13.32;;;19.00;49.20;;;;;;5009767;28;20145;-63
2022/03/28 11:14:09;;;;;;;36.17;14.45;;;19.00;47.30;;;;;;5008222;28;20036;-64
2022/03/28 11:16:40;;;;;;;35.97;13.23;;;19.20;48.80;;;;;;5009014;28;20030;-64
2022/03/28 11:19:25;;;;;;;32.03;13.30;;;19.40;48.20;;;;;;5009354;28;20034;-63
2022/03/28 11:21:58;;;;;;;27.63;12.40;;;19.50;47.10;;;;;;5008679;28;20346;-65
2022/03/28 11:24:42;;;;;;;31.60;13.15;;;19.70;44.30;;;;;;5008971;28;20088;-63
2022/03/28 11:27:09;;;;;;;32.08;12.82;;;19.90;42.90;;;;;;5008339;28;20042;-65
2022/03/28 11:29:35;;;;;;;28.58;12.23;;;19.70;43.20;;;;;;5008583;28;20121;-64
2022/03/28 11:32:12;;;;;;;28.75;12.50;;;19.80;45.40;;;;;;5008865;28;20112;-63
2022/03/28 11:34:39;;;;;;;29.45;12.20;;;20.00;43.30;;;;;;5008752;28;20037;-63
2022/03/28 11:37:05;;;;;;;28.38;12.50;;;19.70;42.30;;;;;;5008338;28;20039;-63
2022/03/28 11:39:50;;;;;;;31.92;12.27;;;19.70;45.20;;;;;;5009289;28;20148;-64
2022/03/28 11:42:20;;;;;;;25.98;12.00;;;20.00;41.30;;;;;;5003418;28;20109;-63
2022/03/28 11:44:45;;;;;;;29.15;12.38;;;20.30;41.40;;;;;;5007869;28;20021;-63
2022/03/28 11:47:17;;;;;;;24.60;11.70;;;20.30;39.20;;;;;;5009554;28;20403;-64
2022/03/28 11:50:00;;;;;;;26.10;11.18;;;20.60;42.10;;;;;;5006930;28;20038;-63
2022/03/28 11:52:28;;;;;;;27.75;12.68;;;20.90;39.10;;;;;;5008938;28;20032;-63
2022/03/28 11:54:56;;;;;;;27.25;11.80;;;20.20;37.30;;;;;;5008188;28;20038;-64
2022/03/28 12:00:24;;;;;;;30.55;13.85;;;20.00;39.20;;;;;;5009292;28;20076;-63
2022/03/28 12:02:54;;;;;;;31.00;12.25;;;20.20;40.40;;;;;;5007264;28;20034;-63
2022/03/28 12:05:34;;;;;;;30.27;13.20;;;20.40;39.50;;;;;;5008617;28;20512;-63
2022/03/28 12:08:05;;;;;;;33.70;13.70;;;20.50;37.30;;;;;;5007510;28;20065;-63
2022/03/28 12:10:34;;;;;;;36.38;12.77;;;20.40;40.90;;;;;;5008319;28;20041;-63
2022/03/28 12:13:03;;;;;;;28.05;13.13;;;20.40;41.70;;;;;;5007887;28;20053;-63
2022/03/28 12:15:31;;;;;;;29.90;12.55;;;20.30;41.60;;;;;;5008813;28;20037;-63
2022/03/28 12:17:59;;;;;;;34.42;13.07;;;20.00;38.20;;;;;;5007509;28;20117;-63
2022/03/28 12:20:32;;;;;;;29.30;13.75;;;20.00;37.60;;;;;;5008898;28;20105;-64
2022/03/28 12:22:58;;;;;;;31.38;13.32;;;20.60;39.80;;;;;;5016303;28;20718;-63
2022/03/28 12:25:28;;;;;;;31.38;13.18;;;20.50;41.90;;;;;;5008422;28;20065;-64
2022/03/28 12:28:00;;;;;;;33.67;12.73;;;20.70;42.90;;;;;;5007286;28;20042;-64
2022/03/28 12:30:35;;;;;;;28.90;13.52;;;21.10;39.70;;;;;;5008464;28;20049;-63
2022/03/28 12:33:18;;;;;;;31.63;13.85;;;21.40;39.30;;;;;;5007949;28;20556;-64
2022/03/28 12:35:47;;;;;;;30.83;13.23;;;21.80;39.40;;;;;;5007957;28;20042;-63
2022/03/28 12:38:20;;;;;;;34.60;13.63;;;21.50;37.60;;;;;;5008534;28;20030;-64
2022/03/28 12:40:49;;;;;;;29.00;13.05;;;21.10;36.20;;;;;;5007630;28;20046;-64
2022/03/28 12:43:15;;;;;;;27.67;13.13;;;21.30;36.60;;;;;;5008313;28;20052;-64